Time;durP1;ratioP1;P1;durP2;ratioP2;P2;SDS_P1;SDS_P2;PMS_P1;PMS_P2;Temp;Humidity;BMP_temperature;BMP_pressure;BME280_temperature;BME280_humidity;BME280_pressure;Samples;Min_cycle;Max_cycle;Signal;HPM_P1;HPM_P2
2021/10/23 00:01:41;;;;;;;;;16.25;12.75;;;;;11.63;81.90;102297.56;4997888;28;45269;-59
2021/10/23 00:04:06;;;;;;;;;13.50;11.00;;;;;11.66;82.36;102296.69;4999561;28;45269;-59
2021/10/23 00:06:32;;;;;;;;;8.75;8.75;;;;;11.66;82.19;102296.69;4998781;28;45315;-59
2021/10/23 00:08:57;;;;;;;;;10.50;10.00;;;;;11.68;81.89;102293.19;4998950;28;45343;-59
2021/10/23 00:11:22;;;;;;;;;12.75;8.00;;;;;11.67;82.30;102301.00;4999431;28;45290;-59
2021/10/23 00:13:48;;;;;;;;;10.00;9.50;;;;;11.65;81.90;102308.84;5002307;28;45390;-59
2021/10/23 00:16:13;;;;;;;;;11.75;8.25;;;;;11.62;81.92;102306.25;5002419;28;45310;-59
2021/10/23 00:18:38;;;;;;;;;10.50;7.50;;;;;11.67;81.25;102306.22;5002605;28;46076;-59
2021/10/23 00:21:04;;;;;;;;;8.25;8.25;;;;;11.64;81.52;102307.13;4986408;28;45407;-59
2021/10/23 00:23:29;;;;;;;;;9.00;8.00;;;;;11.62;81.40;102303.66;5002390;28;45167;-59
2021/10/23 00:25:55;;;;;;;;;9.50;9.25;;;;;11.63;81.55;102305.38;5002636;28;45614;-58
2021/10/23 00:28:21;;;;;;;;;11.00;9.25;;;;;11.66;81.03;102305.38;5002755;28;46138;-58
2021/10/23 00:30:47;;;;;;;;;10.75;9.25;;;;;11.73;80.97;102307.03;5002565;28;45888;-58
2021/10/23 00:33:12;;;;;;;;;9.75;8.75;;;;;11.75;80.88;102310.50;5002749;28;45460;-58
2021/10/23 00:35:38;;;;;;;;;10.50;9.75;;;;;11.76;81.06;102313.97;5003318;28;45384;-59
2021/10/23 00:38:03;;;;;;;;;9.25;8.75;;;;;11.78;80.78;102322.63;5007616;28;46284;-59
2021/10/23 00:40:29;;;;;;;;;6.25;5.25;;;;;11.77;80.59;102307.88;5000097;28;45659;-59
2021/10/23 00:42:55;;;;;;;;;8.50;8.00;;;;;11.76;80.79;102316.56;5000443;28;45302;-59
2021/10/23 00:45:21;;;;;;;;;11.50;8.50;;;;;11.75;80.33;102312.22;4999982;28;45444;-59
2021/10/23 00:47:46;;;;;;;;;10.25;8.25;;;;;11.77;80.59;102308.72;4999810;28;46059;-59
2021/10/23 00:50:12;;;;;;;;;10.75;8.75;;;;;11.80;80.33;102313.94;4999984;28;45635;-59
2021/10/23 00:52:37;;;;;;;;;8.50;6.00;;;;;11.83;80.38;102308.75;5000375;28;45377;-59
2021/10/23 00:55:06;;;;;;;;;8.00;5.75;;;;;11.86;79.97;102313.94;5002251;28;45242;-59
2021/10/23 00:57:32;;;;;;;;;10.25;9.00;;;;;11.86;79.87;102313.94;5000245;28;46382;-58
2021/10/23 00:59:57;;;;;;;;;9.50;8.50;;;;;11.87;79.75;102315.66;4999718;28;45614;-58
2021/10/23 01:02:22;;;;;;;;;9.75;8.00;;;;;11.87;79.46;102312.19;4995931;28;45460;-56
2021/10/23 01:04:48;;;;;;;;;9.50;8.00;;;;;11.84;79.28;102310.47;4999720;28;45449;-57
2021/10/23 01:07:14;;;;;;;;;8.75;7.75;;;;;11.77;79.53;102306.13;4999704;28;45676;-57
2021/10/23 01:09:41;;;;;;;;;9.50;8.00;;;;;11.75;79.65;102301.81;5000062;28;45405;-57
2021/10/23 01:12:08;;;;;;;;;10.00;10.00;;;;;11.74;79.52;102307.91;5001261;28;45415;-57
2021/10/23 01:14:33;;;;;;;;;10.50;8.25;;;;;11.75;79.55;102309.63;4984222;28;46174;-57
2021/10/23 01:16:59;;;;;;;;;8.50;7.50;;;;;11.74;79.50;102303.56;5001861;28;45913;-57
2021/10/23 01:19:24;;;;;;;;;8.00;7.00;;;;;11.73;79.72;102306.16;5001539;28;45172;-57
2021/10/23 01:21:50;;;;;;;;;5.25;5.25;;;;;11.70;79.58;102308.81;5001865;28;45481;-57
2021/10/23 01:24:17;;;;;;;;;9.00;9.00;;;;;11.73;80.38;102303.56;5001293;28;45552;-57
2021/10/23 01:26:43;;;;;;;;;9.75;5.50;;;;;11.78;79.64;102299.19;5002187;28;45318;-57
2021/10/23 01:29:12;;;;;;;;;9.75;8.50;;;;;11.82;79.26;102304.41;5001703;28;45708;-58
2021/10/23 01:31:37;;;;;;;;;9.25;8.50;;;;;11.82;79.28;102299.19;5001923;28;45199;-58
2021/10/23 01:34:19;;;;;;;;;8.75;8.00;;;;;11.82;79.05;102293.13;5001538;28;45463;-58
2021/10/23 01:36:56;;;;;;;;;14.25;8.25;;;;;11.81;78.82;102289.66;5001470;28;46997;-58
2021/10/23 01:39:23;;;;;;;;;7.00;6.75;;;;;11.79;78.77;102283.56;4984243;28;45721;-58
2021/10/23 01:41:49;;;;;;;;;13.00;6.75;;;;;11.77;78.98;102282.69;5001825;28;45346;-57
2021/10/23 01:44:17;;;;;;;;;12.25;8.00;;;;;11.74;78.87;102284.47;5001066;28;45567;-58
2021/10/23 01:46:43;;;;;;;;;9.25;7.00;;;;;11.71;78.86;102282.75;5001332;28;47083;-58
2021/10/23 01:49:09;;;;;;;;;10.25;8.00;;;;;11.71;78.68;102281.88;5001429;28;45384;-58
2021/10/23 01:51:36;;;;;;;;;10.50;7.00;;;;;11.72;78.63;102275.78;5001292;28;45309;-58
2021/10/23 01:54:07;;;;;;;;;9.00;4.00;;;;;11.73;78.66;102278.38;5001598;28;45179;-58
2021/10/23 01:56:35;;;;;;;;;11.50;8.75;;;;;11.73;78.68;102280.13;5001307;28;46153;-58
2021/10/23 01:59:00;;;;;;;;;8.00;5.00;;;;;11.72;78.50;102284.47;5001388;28;45412;-58
2021/10/23 02:01:26;;;;;;;;;10.50;6.25;;;;;11.72;78.55;102283.59;4982093;28;45840;-58
2021/10/23 02:03:52;;;;;;;;;8.50;5.00;;;;;11.71;78.56;102277.53;4998900;28;45500;-58
2021/10/23 02:06:18;;;;;;;;;9.25;9.25;;;;;11.70;78.86;102283.63;5000561;28;45341;-58
2021/10/23 02:08:44;;;;;;;;;8.00;6.75;;;;;11.68;78.76;102280.16;5001466;28;45442;-58
2021/10/23 02:11:09;;;;;;;;;9.00;8.75;;;;;11.66;78.95;102266.31;5001368;28;45349;-57
2021/10/23 02:13:34;;;;;;;;;10.00;7.75;;;;;11.66;78.82;102262.81;5001262;28;45471;-57
2021/10/23 02:16:00;;;;;;;;;11.25;6.50;;;;;11.63;78.63;102268.06;5000729;28;46478;-57
2021/10/23 02:18:26;;;;;;;;;11.25;8.00;;;;;11.61;78.79;102265.44;5000977;28;45402;-57
2021/10/23 02:20:52;;;;;;;;;8.75;8.75;;;;;11.61;78.78;102261.97;5001186;28;45650;-57
2021/10/23 02:23:18;;;;;;;;;8.50;6.50;;;;;11.63;78.68;102263.72;4982902;28;45568;-57
2021/10/23 02:25:43;;;;;;;;;8.50;6.00;;;;;11.65;78.63;102264.56;5000782;28;45324;-57
2021/10/23 02:28:08;;;;;;;;;10.25;8.00;;;;;11.70;78.51;102252.38;5000866;28;45440;-57
2021/10/23 02:30:34;;;;;;;;;9.00;8.00;;;;;11.73;78.45;102259.28;5000835;28;45338;-57
2021/10/23 02:32:59;;;;;;;;;8.00;7.75;;;;;11.71;78.17;102254.09;5000704;28;45412;-56
2021/10/23 02:35:24;;;;;;;;;10.00;7.00;;;;;11.71;78.00;102254.09;4999530;28;45288;-58
2021/10/23 02:37:50;;;;;;;;;9.50;6.75;;;;;11.67;77.79;102262.81;5000643;28;45301;-59
2021/10/23 02:40:15;;;;;;;;;10.00;6.25;;;;;11.66;77.99;102257.63;5000862;28;45411;-59
2021/10/23 02:42:40;;;;;;;;;8.50;8.50;;;;;11.67;78.21;102255.00;5000123;28;45284;-59
2021/10/23 02:45:07;;;;;;;;;10.50;8.75;;;;;11.72;77.94;102274.06;5000445;28;45319;-59
2021/10/23 02:47:33;;;;;;;;;10.00;5.75;;;;;11.72;78.22;102267.97;5000547;28;45499;-59
2021/10/23 02:49:58;;;;;;;;;7.75;7.75;;;;;11.70;77.87;102268.00;5000695;28;45440;-59
2021/10/23 02:52:23;;;;;;;;;53.00;36.75;;;;;11.70;77.81;102265.41;5000353;28;45635;-59
2021/10/23 02:54:49;;;;;;;;;45.25;35.25;;;;;11.70;77.79;102261.94;5000354;28;46176;-59
2021/10/23 02:57:14;;;;;;;;;23.75;23.00;;;;;11.69;77.91;102262.81;5000562;28;45244;-59
2021/10/23 02:59:41;;;;;;;;;6.00;4.75;;;;;11.71;77.94;102274.06;5000257;28;45370;-59
2021/10/23 03:02:07;;;;;;;;;8.00;8.00;;;;;11.74;77.99;102272.31;4978245;28;45582;-59
2021/10/23 03:04:32;;;;;;;;;10.25;6.00;;;;;11.76;77.92;102274.88;4995291;28;45299;-59
2021/10/23 03:06:58;;;;;;;;;10.00;8.00;;;;;11.78;77.79;102279.25;4997621;28;45370;-59
2021/10/23 03:09:23;;;;;;;;;9.50;8.50;;;;;11.79;77.64;102278.38;5000174;28;45377;-59
2021/10/23 03:11:48;;;;;;;;;10.50;4.75;;;;;11.80;77.68;102267.06;5000255;28;45434;-59
2021/10/23 03:14:14;;;;;;;;;9.25;6.75;;;;;11.79;77.77;102265.34;5000292;28;45959;-59
2021/10/23 03:16:39;;;;;;;;;10.00;8.00;;;;;11.82;77.81;102273.16;5000067;28;45464;-59
2021/10/23 03:19:04;;;;;;;;;11.25;9.75;;;;;11.81;77.79;102268.81;5000150;28;45760;-59
2021/10/23 03:21:30;;;;;;;;;10.00;9.25;;;;;11.81;77.88;102267.94;5000064;28;45369;-59
2021/10/23 03:23:55;;;;;;;;;10.00;8.00;;;;;11.78;77.83;102265.31;4999517;28;46315;-59
2021/10/23 03:26:20;;;;;;;;;12.00;9.50;;;;;11.78;77.99;102271.44;5000089;28;45209;-59
2021/10/23 03:28:46;;;;;;;;;7.75;5.25;;;;;11.79;77.83;102273.16;4999882;28;45494;-59
2021/10/23 03:31:11;;;;;;;;;10.00;9.00;;;;;11.78;77.70;102267.94;5000045;28;45267;-59
2021/10/23 03:33:37;;;;;;;;;8.75;8.25;;;;;11.74;77.91;102266.22;4998532;28;46266;-59
2021/10/23 03:36:03;;;;;;;;;7.25;6.00;;;;;11.68;78.14;102269.75;5004782;28;45250;-59
2021/10/23 03:38:29;;;;;;;;;8.00;7.00;;;;;11.67;77.96;102268.03;5003953;28;45519;-59
2021/10/23 03:40:54;;;;;;;;;9.75;8.00;;;;;11.66;78.13;102273.25;4999893;28;45451;-59
2021/10/23 03:43:19;;;;;;;;;9.00;8.00;;;;;11.64;78.46;102267.19;4999630;28;45310;-59
2021/10/23 03:45:45;;;;;;;;;6.75;6.75;;;;;11.62;78.25;102269.81;4999766;28;45373;-59
2021/10/23 03:48:10;;;;;;;;;8.25;5.50;;;;;11.57;78.25;102259.41;4999273;28;45350;-59
2021/10/23 03:50:35;;;;;;;;;9.00;8.25;;;;;11.57;78.17;102266.34;4999728;28;45441;-59
2021/10/23 03:53:01;;;;;;;;;10.00;9.00;;;;;11.55;78.29;102261.16;4999267;28;46237;-59
2021/10/23 03:55:26;;;;;;;;;10.75;8.25;;;;;11.55;78.38;102262.91;5000038;28;45326;-59
2021/10/23 03:57:52;;;;;;;;;7.50;6.00;;;;;11.57;77.97;102263.75;4999639;28;45322;-59
2021/10/23 04:00:18;;;;;;;;;8.75;8.00;;;;;11.58;78.04;102255.06;4981920;28;45355;-60
2021/10/23 04:02:45;;;;;;;;;7.00;5.00;;;;;11.59;78.07;102262.00;4997686;28;46144;-59
2021/10/23 04:05:10;;;;;;;;;8.00;3.75;;;;;11.58;77.76;102255.91;4998987;28;45418;-59
2021/10/23 04:07:35;;;;;;;;;10.00;8.00;;;;;11.58;77.95;102257.66;4999225;28;45456;-59
2021/10/23 04:10:02;;;;;;;;;7.25;7.25;;;;;11.59;77.84;102252.44;4996857;28;45402;-59
2021/10/23 04:12:27;;;;;;;;;9.00;5.00;;;;;11.60;77.73;102250.69;4999208;28;46360;-58
2021/10/23 04:14:53;;;;;;;;;12.75;10.25;;;;;11.62;77.89;102253.31;4999125;28;45263;-59
2021/10/23 04:17:19;;;;;;;;;11.25;9.50;;;;;11.64;77.60;102255.03;4998908;28;45157;-59
2021/10/23 04:19:44;;;;;;;;;10.00;7.75;;;;;11.64;77.23;102254.16;4998439;28;45310;-59
2021/10/23 04:22:10;;;;;;;;;9.75;6.25;;;;;11.68;77.36;102255.88;4998551;28;45293;-59
2021/10/23 04:24:35;;;;;;;;;5.75;5.00;;;;;11.69;77.19;102255.84;4998636;28;45390;-59
2021/10/23 04:27:01;;;;;;;;;11.25;4.50;;;;;11.69;77.36;102253.25;4999105;28;45379;-59
2021/10/23 04:29:26;;;;;;;;;7.50;6.50;;;;;11.70;77.38;102259.31;4981661;28;45316;-59
2021/10/23 04:31:52;;;;;;;;;8.00;8.00;;;;;11.70;77.08;102247.16;4998271;28;45476;-59
2021/10/23 04:34:17;;;;;;;;;7.25;7.25;;;;;11.67;77.06;102251.53;4998105;28;45367;-59
2021/10/23 04:36:43;;;;;;;;;5.50;5.00;;;;;11.65;77.35;102255.91;4998597;28;45266;-59
2021/10/23 04:39:09;;;;;;;;;6.50;5.50;;;;;11.62;77.35;102262.00;4998594;28;45365;-59
2021/10/23 04:41:35;;;;;;;;;9.25;8.25;;;;;11.59;77.22;102254.19;4998528;28;45681;-59
2021/10/23 04:44:01;;;;;;;;;9.00;8.00;;;;;11.55;77.77;102257.69;4998878;28;45391;-59
2021/10/23 04:46:26;;;;;;;;;5.00;5.00;;;;;11.53;77.63;102249.88;4998613;28;45155;-59
2021/10/23 04:48:51;;;;;;;;;10.00;7.00;;;;;11.53;77.68;102257.69;4998110;28;45592;-59
2021/10/23 04:51:17;;;;;;;;;8.75;7.00;;;;;11.56;77.76;102251.59;4998699;28;45276;-59
2021/10/23 04:53:42;;;;;;;;;11.25;8.00;;;;;11.61;77.75;102260.25;4998805;28;45274;-59
2021/10/23 04:56:07;;;;;;;;;7.75;7.75;;;;;11.65;77.34;102259.38;4998825;28;45247;-59
2021/10/23 04:58:36;;;;;;;;;7.25;7.00;;;;;11.65;77.42;102256.75;4997602;28;45453;-59
2021/10/23 05:01:01;;;;;;;;;5.00;5.00;;;;;11.64;77.17;102256.78;5002009;28;45396;-59
2021/10/23 05:03:28;;;;;;;;;8.00;8.00;;;;;11.58;77.31;102260.25;5001168;28;45261;-59
2021/10/23 05:05:53;;;;;;;;;10.50;8.00;;;;;11.54;77.59;102261.16;5002031;28;45346;-59
2021/10/23 05:08:19;;;;;;;;;9.75;7.25;;;;;11.59;77.68;102272.41;5001895;28;45327;-60
2021/10/23 05:10:44;;;;;;;;;5.75;5.00;;;;;11.64;77.58;102267.19;5002217;28;45370;-60
2021/10/23 05:13:10;;;;;;;;;6.25;6.25;;;;;11.69;77.15;102268.00;4999582;28;45363;-60
2021/10/23 05:15:35;;;;;;;;;7.75;7.00;;;;;11.73;77.14;102278.38;5001965;28;45487;-59
2021/10/23 05:18:00;;;;;;;;;10.50;7.50;;;;;11.77;76.84;102272.28;5000156;28;45219;-59
2021/10/23 05:20:26;;;;;;;;;8.00;8.00;;;;;11.77;76.85;102274.88;5002047;28;45283;-59
2021/10/23 05:22:51;;;;;;;;;10.25;6.75;;;;;11.79;76.92;102277.50;5001077;28;45282;-59
2021/10/23 05:25:16;;;;;;;;;9.75;7.75;;;;;11.81;76.87;102274.03;5001864;28;45231;-59
2021/10/23 05:27:42;;;;;;;;;7.00;6.50;;;;;11.85;76.81;102272.25;5001703;28;45613;-59
2021/10/23 05:30:08;;;;;;;;;11.00;8.75;;;;;11.80;76.85;102274.88;5001847;28;46016;-59
2021/10/23 05:32:33;;;;;;;;;13.00;9.75;;;;;11.77;76.94;102276.63;5001458;28;45230;-59
2021/10/23 05:34:58;;;;;;;;;16.25;9.75;;;;;11.75;77.06;102268.81;5001846;28;45331;-59
2021/10/23 05:37:24;;;;;;;;;11.75;9.75;;;;;11.73;77.18;102275.78;5011624;28;45167;-59
2021/10/23 05:39:49;;;;;;;;;10.75;9.00;;;;;11.73;77.09;102269.72;5001529;28;45266;-59
2021/10/23 05:42:15;;;;;;;;;9.75;8.00;;;;;11.73;77.17;102269.72;5001299;28;45291;-59
2021/10/23 05:44:40;;;;;;;;;8.00;5.50;;;;;11.75;77.15;102279.22;5001708;28;45263;-59
2021/10/23 05:47:06;;;;;;;;;9.00;5.25;;;;;11.72;77.07;102273.19;4999788;28;45402;-59
2021/10/23 05:49:31;;;;;;;;;10.25;8.75;;;;;11.69;76.83;102273.22;5001508;28;47033;-59
2021/10/23 05:51:56;;;;;;;;;9.75;8.00;;;;;11.69;76.85;102273.22;5000958;28;45290;-59
2021/10/23 05:54:22;;;;;;;;;8.50;8.50;;;;;11.67;77.16;102278.44;5001781;28;45299;-59
2021/10/23 05:56:47;;;;;;;;;9.00;6.00;;;;;11.66;77.12;102270.63;5001222;28;45560;-59
2021/10/23 05:59:14;;;;;;;;;11.50;10.50;;;;;11.65;76.98;102276.72;5001364;28;45318;-59
2021/10/23 06:01:44;;;;;;;;;9.00;6.00;;;;;11.63;77.29;102284.56;4998199;28;45754;-59
2021/10/23 06:04:10;;;;;;;;;5.25;5.25;;;;;11.63;77.42;102286.28;5001068;28;45314;-59
2021/10/23 06:06:37;;;;;;;;;11.00;9.00;;;;;11.63;77.48;102284.56;5000639;28;45486;-59
2021/10/23 06:09:04;;;;;;;;;6.50;6.25;;;;;11.64;77.27;102281.06;5001274;28;46224;-58
2021/10/23 06:11:30;;;;;;;;;9.00;8.00;;;;;11.64;77.34;102282.81;4998996;28;45847;-58
2021/10/23 06:13:56;;;;;;;;;11.00;8.00;;;;;11.64;77.20;102291.50;5000119;28;45228;-58
2021/10/23 06:16:22;;;;;;;;;8.75;8.00;;;;;11.65;77.42;102288.00;4994559;28;45187;-58
2021/10/23 06:18:48;;;;;;;;;10.25;7.50;;;;;11.61;77.34;102285.41;4997025;28;45564;-58
2021/10/23 06:21:14;;;;;;;;;8.25;8.25;;;;;11.67;77.27;102290.59;4981490;28;45357;-58
2021/10/23 06:23:40;;;;;;;;;8.00;8.00;;;;;11.66;77.26;102299.28;5000760;28;45285;-58
2021/10/23 06:26:05;;;;;;;;;8.50;7.50;;;;;11.66;77.09;102297.53;5000709;28;45621;-58
2021/10/23 06:28:36;;;;;;;;;12.75;8.00;;;;;11.67;77.12;102301.00;5000753;28;46016;-58
2021/10/23 06:31:01;;;;;;;;;9.50;8.00;;;;;11.65;77.26;102303.63;5000191;28;45774;-59
2021/10/23 06:33:26;;;;;;;;;10.00;8.00;;;;;11.68;77.43;102310.56;4999920;28;45320;-58
2021/10/23 06:35:52;;;;;;;;;14.00;7.50;;;;;11.71;77.07;102307.94;5004692;28;45392;-58
2021/10/23 06:38:17;;;;;;;;;12.50;10.25;;;;;11.72;77.21;102315.72;5006820;28;46174;-59
2021/10/23 06:40:42;;;;;;;;;8.25;8.25;;;;;11.74;77.04;102324.38;5000856;28;45330;-59
2021/10/23 06:43:11;;;;;;;;;15.00;10.25;;;;;11.78;76.79;102322.63;5000366;28;45218;-60
2021/10/23 06:45:36;;;;;;;;;9.25;7.00;;;;;11.78;76.79;102320.91;4995214;28;45350;-59
2021/10/23 06:48:02;;;;;;;;;10.25;8.00;;;;;11.80;76.89;102319.16;4997001;28;47093;-59
2021/10/23 06:50:27;;;;;;;;;5.50;4.25;;;;;11.83;76.77;102324.38;4977087;28;45282;-59
2021/10/23 06:52:53;;;;;;;;;14.75;9.00;;;;;11.88;76.73;102332.16;4997227;28;45432;-59
2021/10/23 06:55:18;;;;;;;;;12.25;8.25;;;;;11.86;76.44;102324.34;4994402;28;45338;-58
2021/10/23 06:57:46;;;;;;;;;9.25;9.00;;;;;11.87;76.56;102331.28;4996887;28;46253;-57
2021/10/23 07:00:12;;;;;;;;;10.00;7.50;;;;;11.84;76.60;102328.72;4975473;28;45742;-57
2021/10/23 07:02:39;;;;;;;;;6.00;6.00;;;;;11.82;76.85;102333.06;4998739;28;45363;-57
2021/10/23 07:05:09;;;;;;;;;9.50;8.25;;;;;11.84;76.87;102333.06;5000081;28;45231;-62
2021/10/23 07:07:35;;;;;;;;;12.00;8.00;;;;;11.86;76.84;102342.59;4999863;28;46317;-58
2021/10/23 07:10:00;;;;;;;;;8.00;5.00;;;;;11.92;76.67;102339.06;5000197;28;45147;-59
2021/10/23 07:12:26;;;;;;;;;12.00;8.00;;;;;11.98;76.56;102348.56;5000370;28;45808;-61
2021/10/23 07:14:51;;;;;;;;;10.75;5.75;;;;;12.04;76.60;102345.94;4999864;28;45551;-59
2021/10/23 07:17:16;;;;;;;;;18.50;14.50;;;;;12.04;76.34;102352.00;4996386;28;46321;-60
2021/10/23 07:19:41;;;;;;;;;13.25;9.25;;;;;12.07;76.29;102353.72;4999647;28;45297;-61
2021/10/23 07:22:07;;;;;;;;;10.50;8.00;;;;;12.12;76.06;102358.00;4998686;28;45417;-58
2021/10/23 07:24:32;;;;;;;;;9.00;8.75;;;;;12.14;75.79;102363.22;4999615;28;45256;-59
2021/10/23 07:26:57;;;;;;;;;10.25;8.25;;;;;12.16;75.86;102370.13;4999931;28;45428;-59
2021/10/23 07:29:23;;;;;;;;;4.25;4.25;;;;;12.16;75.79;102364.06;4999762;28;45252;-70
2021/10/23 07:31:48;;;;;;;;;6.00;6.00;;;;;12.21;75.37;102372.69;5000103;28;45472;-58
2021/10/23 07:34:14;;;;;;;;;11.25;9.00;;;;;12.25;75.70;102374.44;4999577;28;45234;-60
2021/10/23 07:36:39;;;;;;;;;11.25;10.00;;;;;12.28;75.51;102373.53;5010074;28;46232;-60
2021/10/23 07:39:05;;;;;;;;;11.25;8.75;;;;;12.32;74.86;102386.53;4982036;28;45300;-60
2021/10/23 07:41:30;;;;;;;;;10.00;8.00;;;;;12.36;74.77;102382.13;4999930;28;45298;-60
2021/10/23 07:43:55;;;;;;;;;12.25;8.50;;;;;12.41;74.87;102383.84;4999288;28;45563;-60
2021/10/23 07:46:21;;;;;;;;;8.25;8.25;;;;;12.47;74.87;102391.59;4999579;28;46270;-59
2021/10/23 07:48:47;;;;;;;;;4.00;4.00;;;;;12.54;74.80;102394.16;4999356;28;45326;-59
2021/10/23 07:51:12;;;;;;;;;11.75;8.50;;;;;12.57;74.77;102397.59;4999832;28;45252;-58
2021/10/23 07:53:38;;;;;;;;;13.25;8.75;;;;;12.67;74.42;102401.00;4999469;28;45252;-59
2021/10/23 07:56:03;;;;;;;;;10.25;8.00;;;;;12.76;74.17;102403.50;4999557;28;45450;-58
2021/10/23 07:58:30;;;;;;;;;11.25;11.00;;;;;12.81;73.75;102404.31;4999537;28;45361;-59
2021/10/23 08:00:55;;;;;;;;;8.50;4.75;;;;;12.76;73.32;102400.88;4981848;28;45353;-59
2021/10/23 08:03:23;;;;;;;;;6.00;6.00;;;;;12.76;73.43;102406.09;4997598;28;45340;-58
2021/10/23 08:05:49;;;;;;;;;8.75;8.75;;;;;12.81;73.71;102406.91;4999071;28;46654;-59
2021/10/23 08:08:14;;;;;;;;;10.00;8.75;;;;;12.87;73.42;102416.44;4999330;28;45178;-58
2021/10/23 08:10:40;;;;;;;;;10.50;10.00;;;;;12.92;73.31;102420.72;4999508;28;45271;-59
2021/10/23 08:13:05;;;;;;;;;13.00;6.75;;;;;13.00;73.30;102412.81;4999217;28;45299;-58
2021/10/23 08:15:33;;;;;;;;;13.75;9.50;;;;;13.06;73.29;102413.63;4999041;28;45995;-60
2021/10/23 08:18:01;;;;;;;;;9.75;9.25;;;;;13.12;72.75;102417.91;4998707;28;45848;-60
2021/10/23 08:20:27;;;;;;;;;9.50;9.00;;;;;13.09;72.55;102413.59;4997032;28;45649;-58
2021/10/23 08:22:53;;;;;;;;;10.00;9.25;;;;;13.10;72.40;102406.63;4998481;28;45446;-61
2021/10/23 08:25:19;;;;;;;;;9.25;6.50;;;;;13.19;73.37;102409.16;4999246;28;46685;-60
2021/10/23 08:27:44;;;;;;;;;10.50;9.25;;;;;13.27;72.34;102407.31;4998973;28;45267;-60
2021/10/23 08:30:16;;;;;;;;;8.75;7.25;;;;;13.31;72.13;102408.16;4995556;28;45255;-60
2021/10/23 08:32:43;;;;;;;;;10.25;6.50;;;;;13.35;72.07;102407.22;4998717;28;45435;-59
2021/10/23 08:35:10;;;;;;;;;8.50;6.50;;;;;13.42;72.15;102406.28;5002220;28;46994;-57
2021/10/23 08:37:36;;;;;;;;;13.25;7.75;;;;;13.55;72.06;102417.41;5002296;28;45793;-58
2021/10/23 08:40:04;;;;;;;;;8.25;7.50;;;;;13.67;71.26;102420.75;5001984;28;45415;-59
2021/10/23 08:42:30;;;;;;;;;11.25;9.25;;;;;13.74;70.82;102418.03;5002134;28;45620;-58
2021/10/23 08:44:59;;;;;;;;;7.00;6.75;;;;;13.75;71.06;102415.41;5001891;28;46296;-56
2021/10/23 08:47:25;;;;;;;;;6.75;5.75;;;;;13.83;70.58;102415.31;5002285;28;45227;-60
2021/10/23 08:49:51;;;;;;;;;18.25;10.00;;;;;13.93;71.24;102414.28;5002081;28;45373;-61
2021/10/23 08:52:17;;;;;;;;;9.75;7.25;;;;;14.02;70.25;102415.91;5001461;28;45362;-61
2021/10/23 08:54:42;;;;;;;;;7.00;6.50;;;;;14.02;69.82;102424.63;5001739;28;46276;-61
2021/10/23 08:57:08;;;;;;;;;10.75;10.25;;;;;14.07;70.28;102411.47;5002254;28;45281;-60
2021/10/23 08:59:33;;;;;;;;;10.50;9.00;;;;;14.17;69.35;102419.13;5002130;28;45393;-59
2021/10/23 09:02:02;;;;;;;;;12.00;10.25;;;;;14.22;69.52;102419.09;5000632;28;45342;-59
2021/10/23 09:04:29;;;;;;;;;11.50;9.00;;;;;14.28;69.85;102427.69;5001872;28;46520;-59
2021/10/23 09:07:14;;;;;;;;;10.50;7.50;;;;;14.39;69.13;102426.63;5002093;28;45582;-58
2021/10/23 09:09:55;;;;;;;;;7.50;7.50;;;;;14.49;69.39;102425.66;5001954;28;45222;-60
2021/10/23 09:12:28;;;;;;;;;9.25;8.50;;;;;14.63;68.98;102422.81;5002071;28;45365;-59
2021/10/23 09:15:00;;;;;;;;;12.50;9.25;;;;;14.78;68.74;102419.88;5000996;28;46228;-59
2021/10/23 09:17:26;;;;;;;;;13.50;9.25;;;;;14.88;68.12;102424.09;5001622;28;45735;-58
2021/10/23 09:19:53;;;;;;;;;10.25;8.00;;;;;14.93;67.73;102418.75;5002082;28;45301;-58
2021/10/23 09:22:32;;;;;;;;;11.75;10.50;;;;;15.02;67.26;102426.44;4998613;28;45561;-60
2021/10/23 09:25:29;;;;;;;;;14.25;12.25;;;;;15.09;67.39;102425.44;4999000;28;46451;-60
2021/10/23 09:28:02;;;;;;;;;8.50;8.50;;;;;15.11;67.53;102427.13;5001506;28;45515;-63
2021/10/23 09:30:33;;;;;;;;;11.25;6.50;;;;;15.26;67.61;102423.34;5001772;28;45308;-59
2021/10/23 09:33:08;;;;;;;;;12.50;8.50;;;;;15.44;66.89;102417.72;4999876;28;45578;-57
2021/10/23 09:36:00;;;;;;;;;10.25;9.50;;;;;15.52;67.04;102409.69;5002914;28;47055;-57
2021/10/23 09:38:30;;;;;;;;;14.25;12.25;;;;;15.47;66.16;102416.81;4998249;28;45315;-58
2021/10/23 09:41:09;;;;;;;;;16.75;13.50;;;;;15.43;65.95;102409.91;4997745;28;45405;-58
2021/10/23 09:43:34;;;;;;;;;11.50;10.00;;;;;15.41;65.06;102411.66;4994970;28;45498;-57
2021/10/23 09:46:00;;;;;;;;;16.75;12.75;;;;;15.32;65.89;102414.50;5000515;28;45361;-58
2021/10/23 09:48:41;;;;;;;;;11.75;10.25;;;;;15.24;65.78;102413.81;4993816;28;45630;-59
2021/10/23 09:51:14;;;;;;;;;14.25;11.50;;;;;15.21;65.90;102412.94;4993418;28;45501;-57
2021/10/23 09:53:41;;;;;;;;;11.75;9.50;;;;;15.27;66.12;102406.75;4995899;28;45410;-59
2021/10/23 09:56:08;;;;;;;;;16.25;14.25;;;;;15.46;66.62;102415.94;4997529;28;46195;-59
2021/10/23 09:58:34;;;;;;;;;16.75;12.75;;;;;15.72;66.15;102409.31;4981202;28;46216;-59
2021/10/23 10:01:01;;;;;;;;;13.50;11.75;;;;;15.93;65.71;102415.81;4980184;28;45461;-59
2021/10/23 10:03:26;;;;;;;;;14.00;12.00;;;;;16.01;64.27;102412.09;4993310;28;45559;-59
2021/10/23 10:05:59;;;;;;;;;10.75;8.00;;;;;16.02;64.16;102403.38;4997525;28;46170;-59
2021/10/23 10:08:26;;;;;;;;;14.50;12.25;;;;;16.15;64.25;102416.19;4995310;28;45405;-59
2021/10/23 10:10:53;;;;;;;;;16.00;11.25;;;;;16.37;64.25;102407.75;4974399;28;45296;-59
2021/10/23 10:13:24;;;;;;;;;11.75;11.75;;;;;16.70;64.36;102418.31;4995824;28;45552;-59
2021/10/23 10:15:55;;;;;;;;;20.75;13.75;;;;;16.99;63.75;102418.38;4996981;28;46409;-59
2021/10/23 10:18:22;;;;;;;;;25.75;18.00;;;;;17.40;63.56;102415.50;4996953;28;45262;-59
2021/10/23 10:20:52;;;;;;;;;15.00;12.75;;;;;17.88;62.86;102406.16;5000663;28;45456;-60
2021/10/23 10:23:19;;;;;;;;;19.25;14.50;;;;;18.17;61.22;102415.75;5000614;28;45430;-59
2021/10/23 10:26:12;;;;;;;;;18.75;13.75;;;;;18.26;61.04;102414.59;5000725;28;46264;-59
2021/10/23 10:34:46;;;;;;;;;13.75;12.50;;;;;21.87;55.14;102407.06;4988841;28;45401;-58
2021/10/23 10:37:29;;;;;;;;;20.00;17.25;;;;;21.70;51.67;102404.38;4999875;28;46546;-65
2021/10/23 10:40:13;;;;;;;;;18.00;15.25;;;;;22.13;52.50;102419.91;4994017;28;45582;-59
2021/10/23 10:42:58;;;;;;;;;12.75;11.25;;;;;22.30;50.78;102415.56;4999258;28;45555;-59
2021/10/23 10:45:31;;;;;;;;;13.25;10.75;;;;;22.35;51.17;102416.19;4994088;28;45432;-60
2021/10/23 10:48:09;;;;;;;;;21.25;16.00;;;;;23.41;50.53;102406.22;4995965;28;46533;-61
2021/10/23 10:50:42;;;;;;;;;14.25;11.50;;;;;23.30;49.23;102407.66;4992807;28;45748;-59
2021/10/23 10:53:31;;;;;;;;;14.75;11.75;;;;;22.73;48.47;102403.63;4994682;28;45230;-60
2021/10/23 10:55:59;;;;;;;;;15.50;10.00;;;;;22.37;49.01;102404.59;4998204;28;45496;-59
2021/10/23 10:58:56;;;;;;;;;12.00;9.50;;;;;24.07;47.56;102398.09;4998116;28;46401;-58
2021/10/23 11:01:26;;;;;;;;;9.50;8.50;;;;;23.70;45.89;102389.56;4999645;28;45204;-59
2021/10/23 11:03:51;;;;;;;;;9.50;9.25;;;;;22.82;46.42;102386.41;4996337;28;45432;-59
2021/10/23 11:06:35;;;;;;;;;11.75;9.25;;;;;21.62;46.62;102388.84;4997336;28;45436;-58
2021/10/23 11:11:44;;;;;;;;;17.50;13.00;;;;;19.81;49.59;102384.41;4999156;28;45334;-59
2021/10/23 11:14:19;;;;;;;;;15.50;12.75;;;;;19.25;50.20;102386.56;4998491;28;45174;-59
2021/10/23 11:17:06;;;;;;;;;12.75;11.50;;;;;18.69;51.28;102390.34;4998308;28;45388;-56
2021/10/23 11:19:39;;;;;;;;;15.50;10.75;;;;;18.30;52.23;102383.78;4992342;28;46219;-57
2021/10/23 11:22:07;;;;;;;;;10.75;9.25;;;;;18.05;52.81;102386.38;4993871;28;45614;-56
2021/10/23 11:25:07;;;;;;;;;12.75;9.00;;;;;17.82;53.86;102387.06;4999228;28;45433;-57
2021/10/23 11:27:46;;;;;;;;;14.75;10.75;;;;;17.68;54.28;102384.03;4986340;28;45287;-59
2021/10/23 11:30:17;;;;;;;;;13.50;10.50;;;;;17.64;54.62;102377.97;5000031;28;45969;-56